sensor_id;sensor_type;location;lat;lon;timestamp;temperature;humidity
55642;DHT22;41509;53.108;6.100;2023-06-26T00:00:40;23.60;99.90
55642;DHT22;41509;53.108;6.100;2023-06-26T00:03:06;23.50;99.90
55642;DHT22;41509;53.108;6.100;2023-06-26T00:05:31;23.60;99.90
55642;DHT22;41509;53.108;6.100;2023-06-26T00:07:58;23.50;99.90
55642;DHT22;41509;53.108;6.100;2023-06-26T00:10:26;23.50;99.90
55642;DHT22;41509;53.108;6.100;2023-06-26T00:12:53;23.50;99.90
55642;DHT22;41509;53.108;6.100;2023-06-26T00:15:19;23.40;99.90
55642;DHT22;41509;53.108;6.100;2023-06-26T00:17:45;23.40;99.90
55642;DHT22;41509;53.108;6.100;2023-06-26T00:20:11;23.40;99.90
55642;DHT22;41509;53.108;6.100;2023-06-26T00:22:36;23.40;99.90
55642;DHT22;41509;53.108;6.100;2023-06-26T00:25:06;23.40;99.90
55642;DHT22;41509;53.108;6.100;2023-06-26T00:27:32;23.30;99.90
55642;DHT22;41509;53.108;6.100;2023-06-26T00:29:58;23.30;99.90
55642;DHT22;41509;53.108;6.100;2023-06-26T00:32:23;23.30;99.90
55642;DHT22;41509;53.108;6.100;2023-06-26T00:34:49;23.20;99.90
55642;DHT22;41509;53.108;6.100;2023-06-26T00:37:15;23.20;99.90
55642;DHT22;41509;53.108;6.100;2023-06-26T00:39:40;23.20;99.90
55642;DHT22;41509;53.108;6.100;2023-06-26T00:42:06;23.20;99.90
55642;DHT22;41509;53.108;6.100;2023-06-26T00:44:32;23.10;99.90
55642;DHT22;41509;53.108;6.100;2023-06-26T00:46:58;23.10;99.90
55642;DHT22;41509;53.108;6.100;2023-06-26T00:49:25;23.10;99.90
55642;DHT22;41509;53.108;6.100;2023-06-26T00:51:51;23.00;99.90
55642;DHT22;41509;53.108;6.100;2023-06-26T00:54:17;23.00;99.90
55642;DHT22;41509;53.108;6.100;2023-06-26T00:56:46;23.00;99.90
55642;DHT22;41509;53.108;6.100;2023-06-26T00:59:13;23.00;99.90
55642;DHT22;41509;53.108;6.100;2023-06-26T01:01:39;23.00;99.90
55642;DHT22;41509;53.108;6.100;2023-06-26T01:04:05;23.00;99.90
55642;DHT22;41509;53.108;6.100;2023-06-26T01:06:33;23.00;99.90
55642;DHT22;41509;53.108;6.100;2023-06-26T01:09:02;23.00;99.90
55642;DHT22;41509;53.108;6.100;2023-06-26T01:11:28;23.00;99.90
55642;DHT22;41509;53.108;6.100;2023-06-26T01:13:54;23.00;99.90
55642;DHT22;41509;53.108;6.100;2023-06-26T01:16:23;23.00;99.90
55642;DHT22;41509;53.108;6.100;2023-06-26T01:18:49;23.00;99.90
55642;DHT22;41509;53.108;6.100;2023-06-26T01:21:15;22.90;99.90
55642;DHT22;41509;53.108;6.100;2023-06-26T01:26:26;23.00;99.90
55642;DHT22;41509;53.108;6.100;2023-06-26T01:28:56;22.90;99.90
55642;DHT22;41509;53.108;6.100;2023-06-26T01:31:22;22.90;99.90
55642;DHT22;41509;53.108;6.100;2023-06-26T01:33:49;22.90;99.90
55642;DHT22;41509;53.108;6.100;2023-06-26T01:36:16;23.00;99.90
55642;DHT22;41509;53.108;6.100;2023-06-26T01:38:42;22.90;99.90
55642;DHT22;41509;53.108;6.100;2023-06-26T01:41:08;22.90;99.90
55642;DHT22;41509;53.108;6.100;2023-06-26T01:43:55;22.90;99.90
55642;DHT22;41509;53.108;6.100;2023-06-26T01:46:31;22.90;99.90
55642;DHT22;41509;53.108;6.100;2023-06-26T01:51:43;22.90;99.90
55642;DHT22;41509;53.108;6.100;2023-06-26T01:54:16;22.90;99.90
55642;DHT22;41509;53.108;6.100;2023-06-26T01:56:46;22.90;99.90
55642;DHT22;41509;53.108;6.100;2023-06-26T01:59:14;22.90;99.90
55642;DHT22;41509;53.108;6.100;2023-06-26T02:01:40;22.90;99.90
55642;DHT22;41509;53.108;6.100;2023-06-26T02:04:05;22.90;99.90
55642;DHT22;41509;53.108;6.100;2023-06-26T02:06:31;22.80;99.90
55642;DHT22;41509;53.108;6.100;2023-06-26T02:08:56;22.90;99.90
55642;DHT22;41509;53.108;6.100;2023-06-26T02:11:22;22.80;99.90
55642;DHT22;41509;53.108;6.100;2023-06-26T02:13:48;22.80;99.90
55642;DHT22;41509;53.108;6.100;2023-06-26T02:16:13;22.80;99.90
55642;DHT22;41509;53.108;6.100;2023-06-26T02:18:39;22.80;99.90
55642;DHT22;41509;53.108;6.100;2023-06-26T02:21:05;22.80;99.90
55642;DHT22;41509;53.108;6.100;2023-06-26T02:23:31;22.80;99.90
55642;DHT22;41509;53.108;6.100;2023-06-26T02:25:56;22.80;99.90
55642;DHT22;41509;53.108;6.100;2023-06-26T02:28:22;22.70;99.90
55642;DHT22;41509;53.108;6.100;2023-06-26T02:30:47;22.70;99.90
55642;DHT22;41509;53.108;6.100;2023-06-26T02:33:13;22.70;99.90
55642;DHT22;41509;53.108;6.100;2023-06-26T02:35:39;22.70;99.90
55642;DHT22;41509;53.108;6.100;2023-06-26T02:38:04;22.70;99.90
55642;DHT22;41509;53.108;6.100;2023-06-26T02:40:30;22.70;99.90
55642;DHT22;41509;53.108;6.100;2023-06-26T02:42:55;22.70;99.90
55642;DHT22;41509;53.108;6.100;2023-06-26T02:45:21;22.70;99.90
55642;DHT22;41509;53.108;6.100;2023-06-26T02:47:46;22.70;99.90
55642;DHT22;41509;53.108;6.100;2023-06-26T02:50:12;22.60;99.90
55642;DHT22;41509;53.108;6.100;2023-06-26T02:52:38;22.60;99.90
55642;DHT22;41509;53.108;6.100;2023-06-26T02:55:04;22.60;99.90
55642;DHT22;41509;53.108;6.100;2023-06-26T02:57:30;22.50;99.90
55642;DHT22;41509;53.108;6.100;2023-06-26T02:59:55;22.50;99.90
55642;DHT22;41509;53.108;6.100;2023-06-26T03:02:21;22.40;99.90
55642;DHT22;41509;53.108;6.100;2023-06-26T03:04:46;22.40;99.90
55642;DHT22;41509;53.108;6.100;2023-06-26T03:07:12;22.40;99.90
55642;DHT22;41509;53.108;6.100;2023-06-26T03:09:38;22.40;99.90
55642;DHT22;41509;53.108;6.100;2023-06-26T03:12:04;22.30;99.90
55642;DHT22;41509;53.108;6.100;2023-06-26T03:14:29;22.30;99.90
55642;DHT22;41509;53.108;6.100;2023-06-26T03:16:57;22.30;99.90
55642;DHT22;41509;53.108;6.100;2023-06-26T03:19:24;22.30;99.90
55642;DHT22;41509;53.108;6.100;2023-06-26T03:21:50;22.20;99.90
55642;DHT22;41509;53.108;6.100;2023-06-26T03:24:16;22.20;99.90
55642;DHT22;41509;53.108;6.100;2023-06-26T03:26:41;22.20;99.90
55642;DHT22;41509;53.108;6.100;2023-06-26T03:29:08;22.20;99.90
55642;DHT22;41509;53.108;6.100;2023-06-26T03:31:33;22.10;99.90
55642;DHT22;41509;53.108;6.100;2023-06-26T03:33:59;22.10;99.90
55642;DHT22;41509;53.108;6.100;2023-06-26T03:36:24;22.10;99.90
55642;DHT22;41509;53.108;6.100;2023-06-26T03:38:50;22.10;99.90
55642;DHT22;41509;53.108;6.100;2023-06-26T03:41:16;22.10;99.90
55642;DHT22;41509;53.108;6.100;2023-06-26T03:43:42;22.00;99.90
55642;DHT22;41509;53.108;6.100;2023-06-26T03:46:07;22.00;99.90
55642;DHT22;41509;53.108;6.100;2023-06-26T03:48:33;21.90;99.90
55642;DHT22;41509;53.108;6.100;2023-06-26T03:50:59;21.90;99.90
55642;DHT22;41509;53.108;6.100;2023-06-26T03:53:26;21.90;99.90
55642;DHT22;41509;53.108;6.100;2023-06-26T03:55:52;21.90;99.90
55642;DHT22;41509;53.108;6.100;2023-06-26T03:58:18;21.80;99.90
55642;DHT22;41509;53.108;6.100;2023-06-26T04:00:43;21.80;99.90
55642;DHT22;41509;53.108;6.100;2023-06-26T04:03:09;21.80;99.90
55642;DHT22;41509;53.108;6.100;2023-06-26T04:05:35;21.70;99.90
55642;DHT22;41509;53.108;6.100;2023-06-26T04:08:01;21.70;99.90
55642;DHT22;41509;53.108;6.100;2023-06-26T04:10:26;21.70;99.90
55642;DHT22;41509;53.108;6.100;2023-06-26T04:12:52;21.70;99.90
55642;DHT22;41509;53.108;6.100;2023-06-26T04:15:18;21.70;99.90
55642;DHT22;41509;53.108;6.100;2023-06-26T04:17:44;21.60;99.90
55642;DHT22;41509;53.108;6.100;2023-06-26T04:20:09;21.60;99.90
55642;DHT22;41509;53.108;6.100;2023-06-26T04:22:35;21.60;99.90
55642;DHT22;41509;53.108;6.100;2023-06-26T04:25:02;21.50;99.90
55642;DHT22;41509;53.108;6.100;2023-06-26T04:27:28;21.50;99.90
55642;DHT22;41509;53.108;6.100;2023-06-26T04:29:54;21.50;99.90
55642;DHT22;41509;53.108;6.100;2023-06-26T04:32:19;21.50;99.90
55642;DHT22;41509;53.108;6.100;2023-06-26T04:34:45;21.60;99.90
55642;DHT22;41509;53.108;6.100;2023-06-26T04:37:13;21.50;99.90
55642;DHT22;41509;53.108;6.100;2023-06-26T04:39:41;21.40;99.90
55642;DHT22;41509;53.108;6.100;2023-06-26T04:42:07;21.40;99.90
55642;DHT22;41509;53.108;6.100;2023-06-26T04:44:33;21.30;99.90
55642;DHT22;41509;53.108;6.100;2023-06-26T04:46:59;21.30;99.90
55642;DHT22;41509;53.108;6.100;2023-06-26T04:49:24;21.20;99.90
55642;DHT22;41509;53.108;6.100;2023-06-26T04:51:50;21.20;99.90
55642;DHT22;41509;53.108;6.100;2023-06-26T04:54:16;21.10;99.90
55642;DHT22;41509;53.108;6.100;2023-06-26T04:56:42;21.10;99.90
55642;DHT22;41509;53.108;6.100;2023-06-26T04:59:09;21.00;99.90
55642;DHT22;41509;53.108;6.100;2023-06-26T05:01:39;20.90;99.90
55642;DHT22;41509;53.108;6.100;2023-06-26T05:04:05;20.80;99.90
55642;DHT22;41509;53.108;6.100;2023-06-26T05:06:31;20.70;99.90
55642;DHT22;41509;53.108;6.100;2023-06-26T05:08:56;20.70;99.90
55642;DHT22;41509;53.108;6.100;2023-06-26T05:11:22;20.70;99.90
55642;DHT22;41509;53.108;6.100;2023-06-26T05:13:49;20.60;99.90
55642;DHT22;41509;53.108;6.100;2023-06-26T05:16:14;20.60;99.90
55642;DHT22;41509;53.108;6.100;2023-06-26T05:18:40;20.40;99.90
55642;DHT22;41509;53.108;6.100;2023-06-26T05:21:06;20.40;99.90
55642;DHT22;41509;53.108;6.100;2023-06-26T05:23:33;20.30;99.90
55642;DHT22;41509;53.108;6.100;2023-06-26T05:26:00;20.30;99.90
55642;DHT22;41509;53.108;6.100;2023-06-26T05:28:26;20.20;99.90
55642;DHT22;41509;53.108;6.100;2023-06-26T05:30:54;20.20;99.90
55642;DHT22;41509;53.108;6.100;2023-06-26T05:33:22;20.20;99.90
55642;DHT22;41509;53.108;6.100;2023-06-26T05:35:49;20.20;99.90
55642;DHT22;41509;53.108;6.100;2023-06-26T05:38:16;20.20;99.90
55642;DHT22;41509;53.108;6.100;2023-06-26T05:40:42;20.10;99.90
55642;DHT22;41509;53.108;6.100;2023-06-26T05:43:08;20.10;99.90
55642;DHT22;41509;53.108;6.100;2023-06-26T05:45:34;20.10;99.90
55642;DHT22;41509;53.108;6.100;2023-06-26T05:48:00;20.10;99.90
55642;DHT22;41509;53.108;6.100;2023-06-26T05:50:26;20.00;99.90
55642;DHT22;41509;53.108;6.100;2023-06-26T05:52:52;20.10;99.90
55642;DHT22;41509;53.108;6.100;2023-06-26T05:55:18;20.10;99.90
55642;DHT22;41509;53.108;6.100;2023-06-26T05:57:45;20.10;99.90
55642;DHT22;41509;53.108;6.100;2023-06-26T06:00:11;20.10;99.90
55642;DHT22;41509;53.108;6.100;2023-06-26T06:02:38;20.20;99.90
55642;DHT22;41509;53.108;6.100;2023-06-26T06:05:04;20.20;99.90
55642;DHT22;41509;53.108;6.100;2023-06-26T06:07:34;20.20;99.90
55642;DHT22;41509;53.108;6.100;2023-06-26T06:10:01;20.20;99.90
55642;DHT22;41509;53.108;6.100;2023-06-26T06:12:26;20.20;99.90
55642;DHT22;41509;53.108;6.100;2023-06-26T06:14:52;20.30;99.90
55642;DHT22;41509;53.108;6.100;2023-06-26T06:17:21;20.30;99.90
55642;DHT22;41509;53.108;6.100;2023-06-26T06:19:47;20.30;99.90
55642;DHT22;41509;53.108;6.100;2023-06-26T06:22:13;20.40;99.90
55642;DHT22;41509;53.108;6.100;2023-06-26T06:24:39;20.40;99.90
55642;DHT22;41509;53.108;6.100;2023-06-26T06:27:04;20.40;99.90
55642;DHT22;41509;53.108;6.100;2023-06-26T06:29:30;20.50;99.90
55642;DHT22;41509;53.108;6.100;2023-06-26T06:31:56;20.50;99.90
55642;DHT22;41509;53.108;6.100;2023-06-26T06:34:22;20.40;99.90
55642;DHT22;41509;53.108;6.100;2023-06-26T06:36:48;20.40;99.90
55642;DHT22;41509;53.108;6.100;2023-06-26T06:39:15;20.40;99.90
55642;DHT22;41509;53.108;6.100;2023-06-26T06:41:41;20.40;99.90
55642;DHT22;41509;53.108;6.100;2023-06-26T06:44:06;20.50;99.90
55642;DHT22;41509;53.108;6.100;2023-06-26T06:46:32;20.50;99.90
55642;DHT22;41509;53.108;6.100;2023-06-26T06:48:58;20.60;99.90
55642;DHT22;41509;53.108;6.100;2023-06-26T06:51:23;20.60;99.90
55642;DHT22;41509;53.108;6.100;2023-06-26T06:53:49;20.60;99.90
55642;DHT22;41509;53.108;6.100;2023-06-26T06:56:14;20.60;99.90
55642;DHT22;41509;53.108;6.100;2023-06-26T06:58:40;20.60;99.90
55642;DHT22;41509;53.108;6.100;2023-06-26T07:01:12;20.60;99.90
55642;DHT22;41509;53.108;6.100;2023-06-26T07:03:37;20.60;99.90
55642;DHT22;41509;53.108;6.100;2023-06-26T07:06:03;20.70;99.90
55642;DHT22;41509;53.108;6.100;2023-06-26T07:08:29;20.70;99.90
55642;DHT22;41509;53.108;6.100;2023-06-26T07:10:55;20.60;99.90
55642;DHT22;41509;53.108;6.100;2023-06-26T07:13:24;20.60;99.90
55642;DHT22;41509;53.108;6.100;2023-06-26T07:15:50;20.70;99.90
55642;DHT22;41509;53.108;6.100;2023-06-26T07:18:16;20.70;99.90
55642;DHT22;41509;53.108;6.100;2023-06-26T07:20:42;20.70;99.90
55642;DHT22;41509;53.108;6.100;2023-06-26T07:23:07;20.80;99.90
55642;DHT22;41509;53.108;6.100;2023-06-26T07:25:33;20.80;99.90
55642;DHT22;41509;53.108;6.100;2023-06-26T07:27:59;20.80;99.90
55642;DHT22;41509;53.108;6.100;2023-06-26T07:30:25;20.80;99.90
55642;DHT22;41509;53.108;6.100;2023-06-26T07:32:50;20.90;99.90
55642;DHT22;41509;53.108;6.100;2023-06-26T07:35:16;20.90;99.90
55642;DHT22;41509;53.108;6.100;2023-06-26T07:37:42;20.90;99.90
55642;DHT22;41509;53.108;6.100;2023-06-26T07:40:08;20.90;99.90
55642;DHT22;41509;53.108;6.100;2023-06-26T07:42:34;21.00;99.90
55642;DHT22;41509;53.108;6.100;2023-06-26T07:45:00;21.00;99.90
55642;DHT22;41509;53.108;6.100;2023-06-26T07:47:25;21.00;99.90
55642;DHT22;41509;53.108;6.100;2023-06-26T07:49:51;20.90;99.90
55642;DHT22;41509;53.108;6.100;2023-06-26T07:52:18;20.90;99.90
55642;DHT22;41509;53.108;6.100;2023-06-26T07:54:44;20.90;99.90
55642;DHT22;41509;53.108;6.100;2023-06-26T07:57:09;20.90;99.90
55642;DHT22;41509;53.108;6.100;2023-06-26T07:59:37;21.00;99.90
55642;DHT22;41509;53.108;6.100;2023-06-26T08:02:02;21.00;99.90
55642;DHT22;41509;53.108;6.100;2023-06-26T08:04:29;21.10;99.90
55642;DHT22;41509;53.108;6.100;2023-06-26T08:06:59;21.20;99.90
55642;DHT22;41509;53.108;6.100;2023-06-26T08:09:27;21.20;99.90
55642;DHT22;41509;53.108;6.100;2023-06-26T08:11:53;21.20;99.90
55642;DHT22;41509;53.108;6.100;2023-06-26T08:14:19;21.30;99.90
55642;DHT22;41509;53.108;6.100;2023-06-26T08:16:45;21.30;99.90
55642;DHT22;41509;53.108;6.100;2023-06-26T08:19:12;21.20;99.90
55642;DHT22;41509;53.108;6.100;2023-06-26T08:21:38;21.20;99.90
55642;DHT22;41509;53.108;6.100;2023-06-26T08:24:03;21.20;99.90
55642;DHT22;41509;53.108;6.100;2023-06-26T08:26:29;21.20;99.90
55642;DHT22;41509;53.108;6.100;2023-06-26T08:28:55;21.20;99.90
55642;DHT22;41509;53.108;6.100;2023-06-26T08:31:20;21.20;99.90
55642;DHT22;41509;53.108;6.100;2023-06-26T08:33:46;21.20;99.90
55642;DHT22;41509;53.108;6.100;2023-06-26T08:36:12;21.20;99.90
55642;DHT22;41509;53.108;6.100;2023-06-26T08:38:38;21.10;99.90
55642;DHT22;41509;53.108;6.100;2023-06-26T08:41:09;21.10;99.90
55642;DHT22;41509;53.108;6.100;2023-06-26T08:43:35;21.10;99.90
55642;DHT22;41509;53.108;6.100;2023-06-26T08:46:02;21.10;99.90
55642;DHT22;41509;53.108;6.100;2023-06-26T08:48:32;21.10;99.90
55642;DHT22;41509;53.108;6.100;2023-06-26T08:51:09;21.20;99.90
55642;DHT22;41509;53.108;6.100;2023-06-26T08:54:00;21.30;99.90
55642;DHT22;41509;53.108;6.100;2023-06-26T08:56:35;21.40;99.90
55642;DHT22;41509;53.108;6.100;2023-06-26T08:59:01;21.40;99.90
55642;DHT22;41509;53.108;6.100;2023-06-26T09:01:27;21.40;99.90
55642;DHT22;41509;53.108;6.100;2023-06-26T09:03:53;21.50;99.90
55642;DHT22;41509;53.108;6.100;2023-06-26T09:06:18;21.50;99.90
55642;DHT22;41509;53.108;6.100;2023-06-26T09:08:44;21.40;99.90
55642;DHT22;41509;53.108;6.100;2023-06-26T09:11:10;21.40;99.90
55642;DHT22;41509;53.108;6.100;2023-06-26T09:13:35;21.40;99.90
55642;DHT22;41509;53.108;6.100;2023-06-26T09:16:08;21.50;99.90
55642;DHT22;41509;53.108;6.100;2023-06-26T09:18:34;21.40;99.90
55642;DHT22;41509;53.108;6.100;2023-06-26T09:21:00;21.40;99.90
55642;DHT22;41509;53.108;6.100;2023-06-26T09:23:31;21.30;99.90
55642;DHT22;41509;53.108;6.100;2023-06-26T09:25:57;21.30;99.90
55642;DHT22;41509;53.108;6.100;2023-06-26T09:28:23;21.30;99.90
55642;DHT22;41509;53.108;6.100;2023-06-26T09:30:49;21.30;99.90
55642;DHT22;41509;53.108;6.100;2023-06-26T09:33:17;21.40;99.90
55642;DHT22;41509;53.108;6.100;2023-06-26T09:35:44;21.50;99.90
55642;DHT22;41509;53.108;6.100;2023-06-26T09:38:10;21.60;99.90
55642;DHT22;41509;53.108;6.100;2023-06-26T09:40:35;21.60;99.90
55642;DHT22;41509;53.108;6.100;2023-06-26T09:43:07;21.70;99.90
55642;DHT22;41509;53.108;6.100;2023-06-26T09:45:34;21.80;99.90
55642;DHT22;41509;53.108;6.100;2023-06-26T09:48:04;22.00;99.90
55642;DHT22;41509;53.108;6.100;2023-06-26T09:50:32;22.10;99.90
55642;DHT22;41509;53.108;6.100;2023-06-26T09:53:10;22.00;99.90
55642;DHT22;41509;53.108;6.100;2023-06-26T09:55:36;22.10;99.90
55642;DHT22;41509;53.108;6.100;2023-06-26T09:58:03;22.30;99.90
55642;DHT22;41509;53.108;6.100;2023-06-26T10:00:30;22.30;99.90
55642;DHT22;41509;53.108;6.100;2023-06-26T10:02:56;22.40;99.90
55642;DHT22;41509;53.108;6.100;2023-06-26T10:05:21;22.50;99.90
55642;DHT22;41509;53.108;6.100;2023-06-26T10:07:47;22.50;99.90
55642;DHT22;41509;53.108;6.100;2023-06-26T10:10:15;22.40;99.90
55642;DHT22;41509;53.108;6.100;2023-06-26T10:12:42;22.30;99.90
55642;DHT22;41509;53.108;6.100;2023-06-26T10:15:12;22.20;99.90
55642;DHT22;41509;53.108;6.100;2023-06-26T10:17:42;22.10;99.90
55642;DHT22;41509;53.108;6.100;2023-06-26T10:20:08;22.00;99.90
55642;DHT22;41509;53.108;6.100;2023-06-26T10:22:40;22.00;99.90
55642;DHT22;41509;53.108;6.100;2023-06-26T10:25:07;21.90;99.90
55642;DHT22;41509;53.108;6.100;2023-06-26T10:27:37;22.00;99.90
55642;DHT22;41509;53.108;6.100;2023-06-26T10:30:08;22.10;99.90
55642;DHT22;41509;53.108;6.100;2023-06-26T10:32:35;22.20;99.90
55642;DHT22;41509;53.108;6.100;2023-06-26T10:35:02;22.20;99.90
55642;DHT22;41509;53.108;6.100;2023-06-26T10:37:45;22.20;99.90
55642;DHT22;41509;53.108;6.100;2023-06-26T10:40:13;22.20;99.90
55642;DHT22;41509;53.108;6.100;2023-06-26T10:42:39;22.20;99.90
55642;DHT22;41509;53.108;6.100;2023-06-26T10:45:09;22.20;99.90
55642;DHT22;41509;53.108;6.100;2023-06-26T10:47:39;22.30;99.90
55642;DHT22;41509;53.108;6.100;2023-06-26T10:55:37;22.80;99.90
55642;DHT22;41509;53.108;6.100;2023-06-26T10:58:02;22.90;99.90
55642;DHT22;41509;53.108;6.100;2023-06-26T11:00:28;22.80;99.90
55642;DHT22;41509;53.108;6.100;2023-06-26T11:02:54;22.60;99.90
55642;DHT22;41509;53.108;6.100;2023-06-26T11:05:23;22.40;99.90
55642;DHT22;41509;53.108;6.100;2023-06-26T11:08:09;22.40;99.90
55642;DHT22;41509;53.108;6.100;2023-06-26T11:10:49;22.20;99.90
55642;DHT22;41509;53.108;6.100;2023-06-26T11:13:17;21.90;99.90
55642;DHT22;41509;53.108;6.100;2023-06-26T11:15:43;21.90;99.90
55642;DHT22;41509;53.108;6.100;2023-06-26T11:18:10;21.90;99.90
55642;DHT22;41509;53.108;6.100;2023-06-26T11:20:37;22.00;99.90
55642;DHT22;41509;53.108;6.100;2023-06-26T11:23:03;22.30;99.90
55642;DHT22;41509;53.108;6.100;2023-06-26T11:25:29;22.40;99.90
55642;DHT22;41509;53.108;6.100;2023-06-26T11:27:55;22.50;99.90
55642;DHT22;41509;53.108;6.100;2023-06-26T11:30:25;22.40;99.90
55642;DHT22;41509;53.108;6.100;2023-06-26T11:32:51;22.30;99.90
55642;DHT22;41509;53.108;6.100;2023-06-26T11:35:23;22.20;99.90
55642;DHT22;41509;53.108;6.100;2023-06-26T11:38:02;22.10;99.90
55642;DHT22;41509;53.108;6.100;2023-06-26T11:40:35;22.10;99.90
55642;DHT22;41509;53.108;6.100;2023-06-26T11:43:01;22.00;99.90
55642;DHT22;41509;53.108;6.100;2023-06-26T11:45:31;22.10;99.90
55642;DHT22;41509;53.108;6.100;2023-06-26T11:47:58;22.30;99.90
55642;DHT22;41509;53.108;6.100;2023-06-26T11:50:25;22.40;99.90
55642;DHT22;41509;53.108;6.100;2023-06-26T11:52:58;22.50;99.90
55642;DHT22;41509;53.108;6.100;2023-06-26T11:55:25;22.50;99.90
55642;DHT22;41509;53.108;6.100;2023-06-26T11:57:55;22.50;99.90
55642;DHT22;41509;53.108;6.100;2023-06-26T12:00:22;22.40;99.90
55642;DHT22;41509;53.108;6.100;2023-06-26T12:02:48;22.30;99.90
55642;DHT22;41509;53.108;6.100;2023-06-26T12:05:16;22.20;99.90
55642;DHT22;41509;53.108;6.100;2023-06-26T12:07:43;22.20;99.90
55642;DHT22;41509;53.108;6.100;2023-06-26T12:10:11;22.10;99.90
55642;DHT22;41509;53.108;6.100;2023-06-26T12:12:38;22.10;99.90
55642;DHT22;41509;53.108;6.100;2023-06-26T12:15:06;22.10;99.90
55642;DHT22;41509;53.108;6.100;2023-06-26T12:17:32;22.10;99.90
55642;DHT22;41509;53.108;6.100;2023-06-26T12:19:57;22.20;99.90
55642;DHT22;41509;53.108;6.100;2023-06-26T12:22:23;22.20;99.90
55642;DHT22;41509;53.108;6.100;2023-06-26T12:24:49;22.30;99.90
55642;DHT22;41509;53.108;6.100;2023-06-26T12:27:15;22.30;99.90
55642;DHT22;41509;53.108;6.100;2023-06-26T12:29:49;22.30;99.90
55642;DHT22;41509;53.108;6.100;2023-06-26T12:32:15;22.20;99.90
55642;DHT22;41509;53.108;6.100;2023-06-26T12:34:41;22.20;99.90
55642;DHT22;41509;53.108;6.100;2023-06-26T12:37:10;22.10;99.90
55642;DHT22;41509;53.108;6.100;2023-06-26T12:40:05;22.00;99.90
55642;DHT22;41509;53.108;6.100;2023-06-26T12:42:41;21.80;99.90
55642;DHT22;41509;53.108;6.100;2023-06-26T12:45:11;21.80;99.90
55642;DHT22;41509;53.108;6.100;2023-06-26T12:47:36;21.70;99.90
55642;DHT22;41509;53.108;6.100;2023-06-26T12:50:05;21.70;99.90
55642;DHT22;41509;53.108;6.100;2023-06-26T12:52:31;21.60;99.90
55642;DHT22;41509;53.108;6.100;2023-06-26T12:54:57;21.70;99.90
55642;DHT22;41509;53.108;6.100;2023-06-26T12:57:23;21.80;99.90
55642;DHT22;41509;53.108;6.100;2023-06-26T12:59:49;21.90;99.90
55642;DHT22;41509;53.108;6.100;2023-06-26T13:02:14;21.90;99.90
55642;DHT22;41509;53.108;6.100;2023-06-26T13:04:40;21.80;99.90
55642;DHT22;41509;53.108;6.100;2023-06-26T13:07:06;21.80;99.90
55642;DHT22;41509;53.108;6.100;2023-06-26T13:09:33;21.70;99.90
55642;DHT22;41509;53.108;6.100;2023-06-26T13:12:00;21.80;99.90
55642;DHT22;41509;53.108;6.100;2023-06-26T13:14:25;21.90;99.90
55642;DHT22;41509;53.108;6.100;2023-06-26T13:16:51;22.10;99.90
55642;DHT22;41509;53.108;6.100;2023-06-26T13:19:17;22.40;99.90
55642;DHT22;41509;53.108;6.100;2023-06-26T13:21:42;22.40;99.90
55642;DHT22;41509;53.108;6.100;2023-06-26T13:24:08;22.40;99.90
55642;DHT22;41509;53.108;6.100;2023-06-26T13:26:34;22.50;99.90
55642;DHT22;41509;53.108;6.100;2023-06-26T13:29:00;22.70;99.90
55642;DHT22;41509;53.108;6.100;2023-06-26T13:31:26;22.80;99.90
55642;DHT22;41509;53.108;6.100;2023-06-26T13:33:51;22.90;99.90
55642;DHT22;41509;53.108;6.100;2023-06-26T13:36:18;22.80;99.90
55642;DHT22;41509;53.108;6.100;2023-06-26T13:38:44;22.80;99.90
55642;DHT22;41509;53.108;6.100;2023-06-26T13:41:09;22.80;99.90
55642;DHT22;41509;53.108;6.100;2023-06-26T13:43:35;22.70;99.90
55642;DHT22;41509;53.108;6.100;2023-06-26T13:46:01;22.50;99.90
55642;DHT22;41509;53.108;6.100;2023-06-26T13:48:28;22.50;99.90
55642;DHT22;41509;53.108;6.100;2023-06-26T13:50:55;22.40;99.90
55642;DHT22;41509;53.108;6.100;2023-06-26T13:53:21;22.50;99.90
55642;DHT22;41509;53.108;6.100;2023-06-26T13:55:47;22.40;99.90
55642;DHT22;41509;53.108;6.100;2023-06-26T13:58:13;22.50;99.90
55642;DHT22;41509;53.108;6.100;2023-06-26T14:00:38;22.40;99.90
55642;DHT22;41509;53.108;6.100;2023-06-26T14:03:05;22.30;99.90
55642;DHT22;41509;53.108;6.100;2023-06-26T14:05:36;22.40;99.90
55642;DHT22;41509;53.108;6.100;2023-06-26T14:08:03;22.60;99.90
55642;DHT22;41509;53.108;6.100;2023-06-26T14:10:30;22.70;99.90
55642;DHT22;41509;53.108;6.100;2023-06-26T14:12:56;22.70;99.90
55642;DHT22;41509;53.108;6.100;2023-06-26T14:15:22;22.70;99.90
55642;DHT22;41509;53.108;6.100;2023-06-26T14:17:48;22.60;99.90
55642;DHT22;41509;53.108;6.100;2023-06-26T14:20:15;22.70;99.90
55642;DHT22;41509;53.108;6.100;2023-06-26T14:22:43;22.80;99.90
55642;DHT22;41509;53.108;6.100;2023-06-26T14:25:13;22.80;99.90
55642;DHT22;41509;53.108;6.100;2023-06-26T14:27:39;22.80;99.90
55642;DHT22;41509;53.108;6.100;2023-06-26T14:30:06;22.80;99.90
55642;DHT22;41509;53.108;6.100;2023-06-26T14:32:35;22.80;99.90
55642;DHT22;41509;53.108;6.100;2023-06-26T14:35:01;22.80;99.80
55642;DHT22;41509;53.108;6.100;2023-06-26T14:37:29;22.70;99.70
55642;DHT22;41509;53.108;6.100;2023-06-26T14:39:56;22.60;99.80
55642;DHT22;41509;53.108;6.100;2023-06-26T14:42:22;22.50;99.90
55642;DHT22;41509;53.108;6.100;2023-06-26T14:44:47;22.30;99.90
55642;DHT22;41509;53.108;6.100;2023-06-26T14:47:15;22.20;99.90
55642;DHT22;41509;53.108;6.100;2023-06-26T14:49:41;22.00;99.90
55642;DHT22;41509;53.108;6.100;2023-06-26T14:52:07;22.20;99.90
55642;DHT22;41509;53.108;6.100;2023-06-26T14:54:32;22.40;99.90
55642;DHT22;41509;53.108;6.100;2023-06-26T14:56:59;22.40;99.60
55642;DHT22;41509;53.108;6.100;2023-06-26T14:59:25;22.50;99.70
55642;DHT22;41509;53.108;6.100;2023-06-26T15:01:51;22.40;99.40
55642;DHT22;41509;53.108;6.100;2023-06-26T15:04:17;22.30;99.10
55642;DHT22;41509;53.108;6.100;2023-06-26T15:06:42;22.30;99.70
55642;DHT22;41509;53.108;6.100;2023-06-26T15:09:08;22.40;99.50
55642;DHT22;41509;53.108;6.100;2023-06-26T15:11:34;22.50;99.30
55642;DHT22;41509;53.108;6.100;2023-06-26T15:14:01;22.60;99.10
55642;DHT22;41509;53.108;6.100;2023-06-26T15:16:27;22.80;98.50
55642;DHT22;41509;53.108;6.100;2023-06-26T15:18:52;22.90;96.30
55642;DHT22;41509;53.108;6.100;2023-06-26T15:21:18;23.00;96.80
55642;DHT22;41509;53.108;6.100;2023-06-26T15:23:45;22.80;94.70
55642;DHT22;41509;53.108;6.100;2023-06-26T15:26:11;22.70;96.20
55642;DHT22;41509;53.108;6.100;2023-06-26T15:28:36;22.60;95.90
55642;DHT22;41509;53.108;6.100;2023-06-26T15:31:02;22.80;94.60
55642;DHT22;41509;53.108;6.100;2023-06-26T15:33:27;22.90;95.10
55642;DHT22;41509;53.108;6.100;2023-06-26T15:35:53;22.80;94.00
55642;DHT22;41509;53.108;6.100;2023-06-26T15:38:19;22.90;94.70